Webcam Flughafen St.Gallen-Altenrhein

Live-Bilder und Zeitraffer LSZR / ACH.

 

Live aus Altenrhein
LIVE
LSZR 301520Z AUTO 03012KT 360V060 9999 BKN034 OVC038 04/M03 Q1022
Zeitraffer heute
2020-03-30 00:14:55
LSZR 292150Z AUTO 36006KT 290V080 9999 -RA SCT009 SCT011 BKN013 04/02 Q1021